createdAt,value
2023-12-05T00:02:19.516Z,69.71
2023-12-05T00:04:47.949Z,69.74
2023-12-05T00:07:16.432Z,69.56
2023-12-05T00:09:44.648Z,69.54
2023-12-05T00:12:13.318Z,69.68
2023-12-05T00:14:41.536Z,69.60
2023-12-05T00:17:09.984Z,69.63
2023-12-05T00:19:38.239Z,69.48
2023-12-05T00:22:06.601Z,69.51
2023-12-05T00:24:34.759Z,69.67
2023-12-05T00:27:02.928Z,69.63
2023-12-05T00:29:31.073Z,69.69
2023-12-05T00:31:59.203Z,69.69
2023-12-05T00:34:27.822Z,69.69
2023-12-05T00:36:56.124Z,69.67
2023-12-05T00:39:24.363Z,69.54
2023-12-05T00:41:52.850Z,69.60
2023-12-05T00:44:21.067Z,69.58
2023-12-05T00:46:49.718Z,69.60
2023-12-05T00:49:17.944Z,69.65
2023-12-05T00:51:46.128Z,69.64
2023-12-05T00:54:15.532Z,69.65
2023-12-05T00:56:43.907Z,69.53
2023-12-05T00:59:12.193Z,69.70
2023-12-05T01:01:40.350Z,69.67
2023-12-05T01:04:08.554Z,69.69
2023-12-05T01:06:36.983Z,69.86
2023-12-05T01:09:07.782Z,69.94
2023-12-05T01:11:36.020Z,69.91
2023-12-05T01:14:04.720Z,69.90
2023-12-05T01:16:32.955Z,70.07
2023-12-05T01:19:01.543Z,70.04
2023-12-05T01:21:29.953Z,70.07
2023-12-05T01:23:58.133Z,70.04
2023-12-05T01:26:26.363Z,70.09
2023-12-05T01:28:56.274Z,70.13
2023-12-05T01:31:25.193Z,70.27
2023-12-05T01:33:53.405Z,70.32
2023-12-05T01:36:21.560Z,70.26
2023-12-05T01:38:49.825Z,70.41
2023-12-05T01:41:18.015Z,70.22
2023-12-05T01:43:46.128Z,70.46
2023-12-05T01:46:14.988Z,70.43
2023-12-05T01:48:43.695Z,70.52
2023-12-05T01:51:12.444Z,70.61
2023-12-05T01:53:42.306Z,70.61
2023-12-05T01:56:12.581Z,70.62
2023-12-05T01:58:41.273Z,70.51
2023-12-05T02:01:11.656Z,70.70
2023-12-05T02:03:41.156Z,70.55
2023-12-05T02:06:09.857Z,70.58
2023-12-05T02:08:39.274Z,70.64
2023-12-05T02:11:08.064Z,70.63
2023-12-05T02:13:36.227Z,70.64
2023-12-05T02:16:22.736Z,70.67
2023-12-05T02:19:17.046Z,70.81
2023-12-05T02:21:50.622Z,70.77
2023-12-05T02:24:34.530Z,70.73
2023-12-05T02:27:43.276Z,70.89
2023-12-05T02:30:13.077Z,70.89
2023-12-05T02:32:41.370Z,70.94
2023-12-05T02:35:12.027Z,70.81
2023-12-05T02:37:49.364Z,70.96
2023-12-05T02:40:28.750Z,71.10
2023-12-05T02:42:59.202Z,71.17
2023-12-05T02:45:32.253Z,71.32
2023-12-05T02:48:02.592Z,71.29
2023-12-05T02:50:31.105Z,71.32
2023-12-05T02:52:59.297Z,71.44
2023-12-05T02:55:27.425Z,71.50
2023-12-05T02:57:55.599Z,71.47
2023-12-05T03:00:23.809Z,71.50
2023-12-05T03:02:52.074Z,71.55
2023-12-05T03:05:20.577Z,71.52
2023-12-05T03:07:48.664Z,71.61
2023-12-05T03:10:16.833Z,71.53
2023-12-05T03:12:45.070Z,71.59
2023-12-05T03:15:13.426Z,71.56
2023-12-05T03:17:41.592Z,71.64
2023-12-05T03:20:10.213Z,71.57
2023-12-05T03:22:38.917Z,71.66
2023-12-05T03:25:07.822Z,71.58
2023-12-05T03:27:36.897Z,71.50
2023-12-05T03:30:06.157Z,71.48
2023-12-05T03:32:34.640Z,71.48
2023-12-05T03:35:02.877Z,71.54
2023-12-05T03:37:31.038Z,71.42
2023-12-05T03:39:59.192Z,71.56
2023-12-05T03:42:27.389Z,71.40
2023-12-05T03:44:55.572Z,71.52
2023-12-05T03:47:23.880Z,71.62
2023-12-05T03:49:52.044Z,71.57
2023-12-05T03:52:20.191Z,71.36
2023-12-05T03:54:48.372Z,71.50
2023-12-05T03:57:16.633Z,71.60
2023-12-05T03:59:46.697Z,71.44
2023-12-05T04:02:14.934Z,71.42
2023-12-05T04:04:43.281Z,71.33
2023-12-05T04:07:11.778Z,71.38
2023-12-05T04:09:39.925Z,71.46
2023-12-05T04:12:08.211Z,71.59
2023-12-05T04:14:36.828Z,71.34
2023-12-05T04:17:04.953Z,71.49
2023-12-05T04:19:33.301Z,71.37
2023-12-05T04:22:01.624Z,71.44
2023-12-05T04:24:29.775Z,71.35
2023-12-05T04:26:58.118Z,71.42
2023-12-05T04:29:26.284Z,71.21
2023-12-05T04:31:54.448Z,71.29
2023-12-05T04:34:23.054Z,71.28
2023-12-05T04:36:52.080Z,71.39
2023-12-05T04:39:20.510Z,71.40
2023-12-05T04:41:48.768Z,71.47
2023-12-05T04:44:16.922Z,71.53
2023-12-05T04:46:45.123Z,71.46
2023-12-05T04:49:13.395Z,71.45
2023-12-05T04:51:42.150Z,71.37
2023-12-05T04:54:10.433Z,71.35
2023-12-05T04:56:38.587Z,71.33
2023-12-05T04:59:06.894Z,71.46
2023-12-05T05:01:35.138Z,71.53
2023-12-05T05:04:04.729Z,71.52
2023-12-05T05:06:33.387Z,71.30
2023-12-05T05:09:01.920Z,71.38
2023-12-05T05:11:30.053Z,71.48
2023-12-05T05:13:59.297Z,71.46
2023-12-05T05:16:28.565Z,71.52
2023-12-05T05:18:56.865Z,71.44
2023-12-05T05:21:25.236Z,71.47
2023-12-05T05:23:53.623Z,71.34
2023-12-05T05:26:22.061Z,71.44
2023-12-05T05:28:50.286Z,71.53
2023-12-05T05:31:18.459Z,71.56
2023-12-05T05:33:46.666Z,71.48
2023-12-05T05:36:16.596Z,71.60
2023-12-05T05:38:45.089Z,71.71
2023-12-05T05:41:13.163Z,71.61
2023-12-05T05:43:41.615Z,71.66
2023-12-05T05:46:09.793Z,71.68
2023-12-05T05:48:37.985Z,71.54
2023-12-05T05:51:06.715Z,71.58
2023-12-05T05:53:34.882Z,71.63
2023-12-05T05:56:03.101Z,71.76
2023-12-05T05:58:31.394Z,71.78
2023-12-05T06:00:59.721Z,71.64
2023-12-05T06:03:29.795Z,71.68
2023-12-05T06:06:00.604Z,71.76
2023-12-05T06:08:29.106Z,71.67
2023-12-05T06:10:57.274Z,71.76
2023-12-05T06:13:26.445Z,71.79
2023-12-05T06:15:55.010Z,71.70
2023-12-05T06:18:23.593Z,71.49
2023-12-05T06:20:53.159Z,71.60
2023-12-05T06:23:21.299Z,71.59
2023-12-05T06:25:49.445Z,71.64
2023-12-05T06:28:17.637Z,71.69
2023-12-05T06:30:45.834Z,71.75
2023-12-05T06:33:14.119Z,71.87
2023-12-05T06:35:42.602Z,73.32
2023-12-05T06:38:10.828Z,73.73
2023-12-05T06:40:39.007Z,72.61
2023-12-05T06:43:08.365Z,72.22
2023-12-05T06:45:36.774Z,72.10
2023-12-05T06:48:05.916Z,72.16
2023-12-05T06:50:34.419Z,72.13
2023-12-05T06:53:02.942Z,72.09
2023-12-05T06:55:31.503Z,72.05
2023-12-05T06:57:59.782Z,72.08
2023-12-05T07:00:27.953Z,72.04
2023-12-05T07:02:56.476Z,72.07
2023-12-05T07:05:25.012Z,72.07
2023-12-05T07:07:53.447Z,72.11
2023-12-05T07:10:21.613Z,72.08
2023-12-05T07:12:49.750Z,71.98
2023-12-05T07:15:18.107Z,71.99
2023-12-05T07:17:46.470Z,71.95
2023-12-05T07:20:15.367Z,71.98
2023-12-05T07:22:44.391Z,72.00
2023-12-05T07:25:12.600Z,71.91
2023-12-05T07:27:41.096Z,71.66
2023-12-05T07:30:09.636Z,71.75
2023-12-05T07:32:37.921Z,71.63
2023-12-05T07:35:06.659Z,71.63
2023-12-05T07:37:35.122Z,71.76
2023-12-05T07:40:06.902Z,71.73
2023-12-05T07:42:35.178Z,71.68
2023-12-05T07:45:05.827Z,71.65
2023-12-05T07:47:34.174Z,71.67
2023-12-05T07:50:02.462Z,71.73
2023-12-05T07:52:30.813Z,71.94
2023-12-05T07:54:58.973Z,71.98
2023-12-05T07:57:27.977Z,71.95
2023-12-05T07:59:56.189Z,71.96
2023-12-05T08:02:24.355Z,71.86
2023-12-05T08:04:52.636Z,71.79
2023-12-05T08:07:20.952Z,71.62
2023-12-05T08:09:49.107Z,71.57
2023-12-05T08:12:17.480Z,71.63
2023-12-05T08:14:45.760Z,71.50
2023-12-05T08:17:14.909Z,71.61
2023-12-05T08:19:43.079Z,71.54
2023-12-05T08:22:11.250Z,71.45
2023-12-05T08:24:39.375Z,71.40
2023-12-05T08:27:08.987Z,71.29
2023-12-05T08:29:37.147Z,71.22
2023-12-05T08:32:06.512Z,71.23
2023-12-05T08:34:35.587Z,71.18
2023-12-05T08:37:04.076Z,71.24
2023-12-05T08:39:32.573Z,71.26
2023-12-05T08:42:00.953Z,71.25
2023-12-05T08:44:29.382Z,71.04
2023-12-05T08:46:57.575Z,71.06
2023-12-05T08:49:25.900Z,71.23
2023-12-05T08:51:54.497Z,71.15
2023-12-05T08:54:23.069Z,71.27
2023-12-05T08:56:52.936Z,71.25
2023-12-05T08:59:22.371Z,71.04
2023-12-05T09:01:51.623Z,71.01
2023-12-05T09:04:19.996Z,71.00
2023-12-05T09:06:48.417Z,71.13
2023-12-05T09:09:18.216Z,71.08
2023-12-05T09:11:46.663Z,70.95
2023-12-05T09:14:14.851Z,70.98
2023-12-05T09:16:42.934Z,70.93
2023-12-05T09:19:11.174Z,70.92
2023-12-05T09:21:39.578Z,70.93
2023-12-05T09:24:10.630Z,70.91
2023-12-05T09:26:39.121Z,70.91
2023-12-05T09:29:07.391Z,71.03
2023-12-05T09:31:35.601Z,70.87
2023-12-05T09:34:04.462Z,70.77
2023-12-05T09:36:32.719Z,70.78
2023-12-05T09:39:00.922Z,70.82
2023-12-05T09:41:29.283Z,70.86
2023-12-05T09:44:01.858Z,70.94
2023-12-05T09:46:37.624Z,70.90
2023-12-05T09:49:15.444Z,70.97
2023-12-05T09:51:44.171Z,70.86
2023-12-05T09:54:14.224Z,70.62
2023-12-05T09:56:42.922Z,70.62
2023-12-05T09:59:12.098Z,70.70
2023-12-05T10:01:43.631Z,70.62
2023-12-05T10:04:13.082Z,70.65
2023-12-05T10:06:41.511Z,70.65
2023-12-05T10:09:12.051Z,70.53
2023-12-05T10:11:42.121Z,70.56
2023-12-05T10:14:10.575Z,70.70
2023-12-05T10:16:39.117Z,70.58
2023-12-05T10:19:10.972Z,70.65
2023-12-05T10:21:39.629Z,70.59
2023-12-05T10:24:08.041Z,70.46
2023-12-05T10:26:45.330Z,70.53
2023-12-05T10:29:13.786Z,70.34
2023-12-05T10:31:42.636Z,70.47
2023-12-05T10:34:11.097Z,70.12
2023-12-05T10:36:39.324Z,69.99
2023-12-05T10:39:07.527Z,70.06
2023-12-05T10:41:36.373Z,70.20
2023-12-05T10:44:04.593Z,70.31
2023-12-05T10:46:36.710Z,70.35
2023-12-05T10:49:06.205Z,70.34
2023-12-05T10:51:34.661Z,70.29
2023-12-05T10:54:03.936Z,70.38
2023-12-05T10:56:32.103Z,70.44
2023-12-05T10:59:01.770Z,70.39
2023-12-05T11:01:30.349Z,70.43
2023-12-05T11:04:02.280Z,70.32
2023-12-05T11:06:31.574Z,70.32
2023-12-05T11:08:59.910Z,70.29
2023-12-05T11:11:29.539Z,70.12
2023-12-05T11:13:59.556Z,69.94
2023-12-05T11:16:36.348Z,69.74
2023-12-05T11:19:50.619Z,69.74
2023-12-05T11:22:47.120Z,69.79
2023-12-05T11:25:36.799Z,69.94
2023-12-05T11:28:32.403Z,69.91
2023-12-05T11:31:06.559Z,69.99
2023-12-05T11:33:47.103Z,70.03
2023-12-05T11:36:30.156Z,70.00
2023-12-05T11:39:00.193Z,69.97
2023-12-05T11:41:29.004Z,70.07
2023-12-05T11:44:12.652Z,70.05
2023-12-05T11:46:51.341Z,70.09
2023-12-05T11:49:54.547Z,69.88
2023-12-05T11:52:27.388Z,69.95
2023-12-05T11:54:56.299Z,70.05
2023-12-05T11:57:25.752Z,70.11
2023-12-05T11:59:55.661Z,70.05
2023-12-05T12:02:33.110Z,70.13
2023-12-05T12:05:09.918Z,69.99
2023-12-05T12:07:58.090Z,69.96
2023-12-05T12:10:27.895Z,69.89
2023-12-05T12:12:56.547Z,69.84
2023-12-05T12:15:25.157Z,69.74
2023-12-05T12:17:53.463Z,69.62
2023-12-05T12:20:21.850Z,69.47
2023-12-05T12:22:51.729Z,69.60
2023-12-05T12:25:20.677Z,69.47
2023-12-05T12:27:49.046Z,69.28
2023-12-05T12:30:20.505Z,69.37
2023-12-05T12:33:06.308Z,69.38
2023-12-05T12:35:36.114Z,69.44
2023-12-05T12:38:04.477Z,69.29
2023-12-05T12:40:36.186Z,69.18
2023-12-05T12:43:04.671Z,69.17
2023-12-05T12:45:33.767Z,69.31
2023-12-05T12:48:06.175Z,69.08
2023-12-05T12:50:34.887Z,69.10
2023-12-05T12:53:03.198Z,69.21
2023-12-05T12:55:31.601Z,69.17
2023-12-05T12:58:04.156Z,69.05
2023-12-05T13:00:38.037Z,69.13
2023-12-05T13:03:08.580Z,69.07
2023-12-05T13:05:41.118Z,69.07
2023-12-05T13:08:09.786Z,69.14
2023-12-05T13:10:42.210Z,69.23
2023-12-05T13:13:10.540Z,69.37
2023-12-05T13:15:39.898Z,69.37
2023-12-05T13:18:08.987Z,69.40
2023-12-05T13:20:57.696Z,69.39
2023-12-05T13:23:26.369Z,69.33
2023-12-05T13:25:56.478Z,69.42
2023-12-05T13:28:24.722Z,69.31
2023-12-05T13:30:53.258Z,69.01
2023-12-05T13:33:21.486Z,69.08
2023-12-05T13:35:51.068Z,69.06
2023-12-05T13:38:20.553Z,68.99
2023-12-05T13:40:49.055Z,68.93
2023-12-05T13:43:18.399Z,68.82
2023-12-05T13:45:46.624Z,68.64
2023-12-05T13:48:15.150Z,68.76
2023-12-05T13:50:43.460Z,68.93
2023-12-05T13:53:17.195Z,69.16
2023-12-05T13:55:45.302Z,68.90
2023-12-05T13:58:13.549Z,68.92
2023-12-05T14:00:41.947Z,69.11
2023-12-05T14:03:10.309Z,69.18
2023-12-05T14:05:38.752Z,69.20
2023-12-05T14:08:07.371Z,69.25
2023-12-05T14:10:41.803Z,69.22
2023-12-05T14:13:13.414Z,69.29
2023-12-05T14:15:42.873Z,69.40
2023-12-05T14:18:11.320Z,69.37
2023-12-05T14:20:39.469Z,69.41
2023-12-05T14:23:07.713Z,69.47
2023-12-05T14:25:35.928Z,69.39
2023-12-05T14:28:05.847Z,69.43
2023-12-05T14:30:34.639Z,69.53
2023-12-05T14:33:02.836Z,69.71
2023-12-05T14:35:31.181Z,69.55
2023-12-05T14:37:59.753Z,69.13
2023-12-05T14:40:27.990Z,69.10
2023-12-05T14:42:56.610Z,69.03
2023-12-05T14:45:29.539Z,68.75
2023-12-05T14:48:01.134Z,69.01
2023-12-05T14:50:33.999Z,68.82
2023-12-05T14:53:02.257Z,69.02
2023-12-05T14:55:31.074Z,68.98
2023-12-05T14:57:59.893Z,68.88
2023-12-05T15:00:31.784Z,68.84
2023-12-05T15:03:02.790Z,68.84
2023-12-05T15:05:33.300Z,68.97
2023-12-05T15:08:01.583Z,69.15
2023-12-05T15:10:30.801Z,69.11
2023-12-05T15:12:59.068Z,69.17
2023-12-05T15:15:27.865Z,69.31
2023-12-05T15:17:56.522Z,69.15
2023-12-05T15:20:26.467Z,69.06
2023-12-05T15:22:54.877Z,69.00
2023-12-05T15:25:25.009Z,68.95
2023-12-05T15:27:53.362Z,69.09
2023-12-05T15:30:22.108Z,69.13
2023-12-05T15:32:54.930Z,69.21
2023-12-05T15:35:24.018Z,69.21
2023-12-05T15:37:54.854Z,69.24
2023-12-05T15:40:23.797Z,69.34
2023-12-05T15:42:52.050Z,69.56
2023-12-05T15:45:20.671Z,69.55
2023-12-05T15:47:51.122Z,69.47
2023-12-05T15:50:20.017Z,69.56
2023-12-05T15:52:49.319Z,69.70
2023-12-05T15:55:17.588Z,69.73
2023-12-05T15:57:46.126Z,69.78
2023-12-05T16:00:14.702Z,69.76
2023-12-05T16:03:02.820Z,69.85
2023-12-05T16:05:31.816Z,69.72
2023-12-05T16:08:00.403Z,69.79
2023-12-05T16:10:30.151Z,69.75
2023-12-05T16:12:58.473Z,69.78
2023-12-05T16:15:26.944Z,69.73
2023-12-05T16:17:58.643Z,69.64
2023-12-05T16:20:27.013Z,69.40
2023-12-05T16:22:55.185Z,69.50
2023-12-05T16:25:23.586Z,69.41
2023-12-05T16:27:52.132Z,69.30
2023-12-05T16:30:20.476Z,69.28
2023-12-05T16:32:49.138Z,69.22
2023-12-05T16:35:17.400Z,69.34
2023-12-05T16:37:48.065Z,69.41
2023-12-05T16:40:16.599Z,69.55
2023-12-05T16:42:45.360Z,69.45
2023-12-05T16:45:14.985Z,69.64
2023-12-05T16:47:43.662Z,69.53
2023-12-05T16:50:14.238Z,69.40
2023-12-05T16:52:43.270Z,69.38
2023-12-05T16:55:11.498Z,69.33
2023-12-05T16:57:47.235Z,69.25
2023-12-05T17:00:16.409Z,69.52
2023-12-05T17:02:45.017Z,69.41
2023-12-05T17:05:14.224Z,69.51
2023-12-05T17:07:42.639Z,69.67
2023-12-05T17:10:13.700Z,69.58
2023-12-05T17:12:43.094Z,69.44
2023-12-05T17:15:11.444Z,69.44
2023-12-05T17:17:39.617Z,69.48
2023-12-05T17:20:09.839Z,69.46
2023-12-05T17:22:38.021Z,69.32
2023-12-05T17:25:07.109Z,69.55
2023-12-05T17:27:35.567Z,69.66
2023-12-05T17:30:07.472Z,69.61
2023-12-05T17:32:35.827Z,69.68
2023-12-05T17:35:04.927Z,69.84
2023-12-05T17:37:33.455Z,69.85
2023-12-05T17:40:04.138Z,69.77
2023-12-05T17:42:33.528Z,69.86
2023-12-05T17:45:01.764Z,69.86
2023-12-05T17:47:30.122Z,70.04
2023-12-05T17:49:58.462Z,70.03
2023-12-05T17:52:27.513Z,70.11
2023-12-05T17:54:55.846Z,70.04
2023-12-05T17:57:24.216Z,70.07
2023-12-05T17:59:52.422Z,70.16
2023-12-05T18:02:20.885Z,69.96
2023-12-05T18:04:49.905Z,70.03
2023-12-05T18:07:51.828Z,70.33
2023-12-05T18:10:07.198Z,70.37
2023-12-05T18:12:35.678Z,70.49
2023-12-05T18:15:05.727Z,70.56
2023-12-05T18:17:33.931Z,70.48
2023-12-05T18:20:02.716Z,70.42
2023-12-05T18:22:31.073Z,70.39
2023-12-05T18:25:01.293Z,70.57
2023-12-05T18:27:29.611Z,70.55
2023-12-05T18:29:58.055Z,70.61
2023-12-05T18:32:26.374Z,70.69
2023-12-05T18:34:55.718Z,70.78
2023-12-05T18:37:25.009Z,70.86
2023-12-05T18:39:54.131Z,70.96
2023-12-05T18:42:22.569Z,70.82
2023-12-05T18:44:50.888Z,70.82
2023-12-05T18:47:19.361Z,70.88
2023-12-05T18:49:48.153Z,70.77
2023-12-05T18:52:17.103Z,70.75
2023-12-05T18:54:45.599Z,70.74
2023-12-05T18:57:14.803Z,70.87
2023-12-05T18:59:43.998Z,71.01
2023-12-05T19:02:12.175Z,70.98
2023-12-05T19:04:40.714Z,71.01
2023-12-05T19:07:11.477Z,70.97
2023-12-05T19:09:40.364Z,70.96
2023-12-05T19:12:09.210Z,71.02
2023-12-05T19:14:37.413Z,71.20
2023-12-05T19:17:09.211Z,71.27
2023-12-05T19:19:37.464Z,71.27
2023-12-05T19:22:05.903Z,71.21
2023-12-05T19:24:34.135Z,71.34
2023-12-05T19:27:02.531Z,71.40
2023-12-05T19:29:30.848Z,71.49
2023-12-05T19:31:59.131Z,71.72
2023-12-05T19:34:35.491Z,71.67
2023-12-05T19:37:11.585Z,71.72
2023-12-05T19:39:43.516Z,71.91
2023-12-05T19:42:16.781Z,71.99
2023-12-05T19:44:47.846Z,71.99
2023-12-05T19:47:19.356Z,72.04
2023-12-05T19:49:47.989Z,72.12
2023-12-05T19:52:16.466Z,72.41
2023-12-05T19:54:45.218Z,72.51
2023-12-05T19:57:13.532Z,72.48
2023-12-05T19:59:45.979Z,72.76
2023-12-05T20:02:14.479Z,72.84
2023-12-05T20:04:43.458Z,72.62
2023-12-05T20:07:11.844Z,72.85
2023-12-05T20:09:41.248Z,72.84
2023-12-05T20:12:09.783Z,72.65
2023-12-05T20:14:38.081Z,72.66
2023-12-05T20:17:06.374Z,73.01
2023-12-05T20:19:35.014Z,73.24
2023-12-05T20:22:08.963Z,73.24
2023-12-05T20:24:37.243Z,72.91
2023-12-05T20:27:08.545Z,73.05
2023-12-05T20:29:37.337Z,73.14
2023-12-05T20:32:06.798Z,73.06
2023-12-05T20:34:35.039Z,73.24
2023-12-05T20:37:04.672Z,73.04
2023-12-05T20:39:36.478Z,73.25
2023-12-05T20:42:07.851Z,73.39
2023-12-05T20:44:36.706Z,73.38
2023-12-05T20:47:07.020Z,73.28
2023-12-05T20:49:35.385Z,73.43
2023-12-05T20:52:05.248Z,73.09
2023-12-05T20:54:33.452Z,73.12
2023-12-05T20:57:02.553Z,73.21
2023-12-05T20:59:31.079Z,73.16
2023-12-05T21:01:59.482Z,73.18
2023-12-05T21:04:27.757Z,73.07
2023-12-05T21:06:56.102Z,72.92
2023-12-05T21:09:24.252Z,72.86
2023-12-05T21:11:52.371Z,72.79
2023-12-05T21:14:20.648Z,72.89
2023-12-05T21:16:48.909Z,72.92
2023-12-05T21:19:17.146Z,73.12
2023-12-05T21:21:45.346Z,73.12
2023-12-05T21:24:13.701Z,73.15
2023-12-05T21:26:41.880Z,73.10
2023-12-05T21:29:10.153Z,73.25
2023-12-05T21:31:38.347Z,73.16
2023-12-05T21:34:06.548Z,73.07
2023-12-05T21:36:34.808Z,73.16
2023-12-05T21:39:03.784Z,73.22
2023-12-05T21:41:31.954Z,73.38
2023-12-05T21:44:00.187Z,73.59
2023-12-05T21:46:29.807Z,73.76
2023-12-05T21:49:02.913Z,73.56
2023-12-05T21:51:33.568Z,73.55
2023-12-05T21:54:03.356Z,73.62
2023-12-05T21:56:32.140Z,73.75
2023-12-05T21:59:00.622Z,73.72
2023-12-05T22:01:31.260Z,73.59
2023-12-05T22:03:59.796Z,73.68
2023-12-05T22:06:28.781Z,73.71
2023-12-05T22:08:57.003Z,73.87
2023-12-05T22:11:25.600Z,73.84
2023-12-05T22:13:53.836Z,73.70
2023-12-05T22:16:22.027Z,73.58
2023-12-05T22:18:50.680Z,73.82
2023-12-05T22:21:20.999Z,73.81
2023-12-05T22:23:49.198Z,73.79
2023-12-05T22:26:19.814Z,73.86
2023-12-05T22:28:47.929Z,73.87
2023-12-05T22:31:23.605Z,73.94
2023-12-05T22:33:52.392Z,73.91
2023-12-05T22:36:22.778Z,73.92
2023-12-05T22:38:52.435Z,73.99
2023-12-05T22:41:21.194Z,74.20
2023-12-05T22:43:50.419Z,74.06
2023-12-05T22:46:18.984Z,73.91
2023-12-05T22:48:47.392Z,74.01
2023-12-05T22:51:16.309Z,74.17
2023-12-05T22:53:44.606Z,74.35
2023-12-05T22:56:12.884Z,74.29
2023-12-05T22:58:41.216Z,74.32
2023-12-05T23:01:09.436Z,74.37
2023-12-05T23:03:37.701Z,74.56
2023-12-05T23:06:06.152Z,74.63
2023-12-05T23:08:34.306Z,74.44
2023-12-05T23:11:02.549Z,74.72
2023-12-05T23:13:30.863Z,75.01
2023-12-05T23:16:00.384Z,75.36
2023-12-05T23:18:29.388Z,75.33
2023-12-05T23:20:58.158Z,74.99
2023-12-05T23:23:26.446Z,74.93
2023-12-05T23:25:54.646Z,75.25
2023-12-05T23:28:25.834Z,75.24
2023-12-05T23:30:54.633Z,75.31
2023-12-05T23:33:23.183Z,75.27
2023-12-05T23:35:51.536Z,74.85
2023-12-05T23:38:19.671Z,74.53
2023-12-05T23:40:48.325Z,74.57
2023-12-05T23:43:16.449Z,74.78
2023-12-05T23:45:44.772Z,74.86
2023-12-05T23:48:13.560Z,75.20
2023-12-05T23:50:41.833Z,75.48
2023-12-05T23:53:10.832Z,75.73
2023-12-05T23:55:39.033Z,75.63
2023-12-05T23:58:07.211Z,75.78
